Time;durP1;ratioP1;P1;durP2;ratioP2;P2;SDS_P1;SDS_P2;PMS_P1;PMS_P2;Temp;Humidity;BMP_temperature;BMP_pressure;BME280_temperature;BME280_humidity;BME280_pressure;Samples;Min_cycle;Max_cycle;Signal;HPM_P1;HPM_P2
2024/04/05 00:00:47;;;;;;;14.80;3.97;;;12.70;99.90;;;;;;2093457;28;20021;-68
2024/04/05 00:01:47;;;;;;;21.30;4.28;;;12.70;99.90;;;;;;2095058;28;20021;-66
2024/04/05 00:02:48;;;;;;;13.15;3.28;;;12.70;99.90;;;;;;2093582;28;20033;-69
2024/04/05 00:03:51;;;;;;;16.45;3.90;;;12.70;99.90;;;;;;2093108;28;20032;-67
2024/04/05 00:04:51;;;;;;;18.98;4.25;;;12.80;99.90;;;;;;2093673;28;20470;-65
2024/04/05 00:05:52;;;;;;;14.73;3.42;;;12.80;99.90;;;;;;2093058;28;20552;-67
2024/04/05 00:06:52;;;;;;;18.05;4.15;;;12.80;99.90;;;;;;2094373;28;20484;-68
2024/04/05 00:07:56;;;;;;;15.45;3.45;;;12.80;99.90;;;;;;2091132;28;20550;-68
2024/04/05 00:08:56;;;;;;;15.18;3.50;;;12.80;99.90;;;;;;2092427;28;20102;-68
2024/04/05 00:09:57;;;;;;;14.50;4.03;;;12.80;99.90;;;;;;2093245;28;20021;-68
2024/04/05 00:10:58;;;;;;;18.27;4.18;;;12.90;99.90;;;;;;2092929;28;20036;-68
2024/04/05 00:11:58;;;;;;;16.88;4.07;;;12.90;99.90;;;;;;2091402;28;20471;-67
2024/04/05 00:12:59;;;;;;;11.50;3.00;;;12.90;99.90;;;;;;2087631;28;20020;-69
2024/04/05 00:14:00;;;;;;;19.38;3.85;;;12.90;99.90;;;;;;2085844;28;20418;-66
2024/04/05 00:15:01;;;;;;;14.00;4.03;;;12.90;99.90;;;;;;2092085;28;20024;-67
2024/04/05 00:16:04;;;;;;;13.32;3.75;;;12.90;99.90;;;;;;2093129;28;20036;-68
2024/04/05 00:17:04;;;;;;;15.38;3.60;;;13.00;99.90;;;;;;2093321;28;20017;-67
2024/04/05 00:18:05;;;;;;;17.05;4.07;;;13.00;99.90;;;;;;2094403;28;20032;-67
2024/04/05 00:19:05;;;;;;;13.93;3.45;;;13.00;99.90;;;;;;2092385;28;20017;-67
2024/04/05 00:20:06;;;;;;;17.98;4.15;;;13.00;99.90;;;;;;2093587;28;20029;-67
2024/04/05 00:21:10;;;;;;;14.63;3.42;;;13.00;99.90;;;;;;2095135;28;20019;-68
2024/04/05 00:22:10;;;;;;;13.43;3.83;;;13.00;99.90;;;;;;2094537;28;20032;-67
2024/04/05 00:23:11;;;;;;;19.25;3.88;;;13.00;99.90;;;;;;2094341;28;20025;-68
2024/04/05 00:24:12;;;;;;;16.35;3.25;;;13.00;99.90;;;;;;2093375;28;20469;-67
2024/04/05 00:25:13;;;;;;;19.15;3.83;;;13.10;99.90;;;;;;2085383;28;20021;-67
2024/04/05 00:26:16;;;;;;;14.35;3.00;;;13.10;99.90;;;;;;2085599;28;20128;-68
2024/04/05 00:27:16;;;;;;;15.27;3.30;;;13.10;99.90;;;;;;2093593;28;20032;-67
2024/04/05 00:28:17;;;;;;;15.60;3.50;;;13.10;99.90;;;;;;2095995;28;20020;-67
2024/04/05 00:29:17;;;;;;;17.13;3.60;;;13.10;99.90;;;;;;2095147;28;20078;-67
2024/04/05 00:30:18;;;;;;;16.08;3.42;;;13.10;99.90;;;;;;2094140;28;20069;-67
2024/04/05 00:31:19;;;;;;;19.17;3.85;;;13.10;99.90;;;;;;2093439;28;20024;-68
2024/04/05 00:32:20;;;;;;;16.00;3.60;;;13.10;99.90;;;;;;2095485;28;20028;-67
2024/04/05 00:33:21;;;;;;;12.90;2.95;;;13.20;99.90;;;;;;2095195;28;20020;-68
2024/04/05 00:34:21;;;;;;;14.02;4.03;;;13.20;99.90;;;;;;2096146;28;20029;-68
2024/04/05 00:35:22;;;;;;;14.55;3.05;;;13.20;99.90;;;;;;2094075;28;20044;-68
2024/04/05 00:36:22;;;;;;;17.23;3.78;;;13.20;99.90;;;;;;2096099;28;20028;-68
2024/04/05 00:37:23;;;;;;;13.55;3.58;;;13.20;99.90;;;;;;2095123;28;20546;-67
2024/04/05 00:38:27;;;;;;;15.23;3.58;;;13.20;99.90;;;;;;2096139;28;20111;-67
2024/04/05 00:39:30;;;;;;;12.82;3.72;;;13.20;99.90;;;;;;2094785;28;20110;-69
2024/04/05 00:40:31;;;;;;;13.02;3.25;;;13.30;99.90;;;;;;2095684;28;20068;-69
2024/04/05 00:41:31;;;;;;;14.13;3.85;;;13.20;99.90;;;;;;2095845;28;20036;-69
2024/04/05 00:42:34;;;;;;;11.68;3.60;;;13.30;99.90;;;;;;2096390;28;20499;-68
2024/04/05 00:43:42;;;;;;;14.60;3.25;;;13.30;99.90;;;;;;2095478;28;20023;-69
2024/04/05 00:44:45;;;;;;;15.93;3.72;;;13.30;99.90;;;;;;2087243;28;20569;-66
2024/04/05 00:45:55;;;;;;;8.88;2.90;;;13.30;99.90;;;;;;2088331;28;20037;-67
2024/04/05 00:46:58;;;;;;;8.93;2.95;;;13.30;99.90;;;;;;2096921;28;20104;-66
2024/04/05 00:48:02;;;;;;;11.93;2.97;;;13.30;99.90;;;;;;2094796;28;20032;-66
2024/04/05 00:49:03;;;;;;;12.80;3.30;;;13.30;99.90;;;;;;2094991;28;20036;-68
2024/04/05 00:50:08;;;;;;;15.07;3.78;;;13.30;99.90;;;;;;2095056;28;20025;-66
2024/04/05 00:51:09;;;;;;;11.18;2.95;;;13.30;99.90;;;;;;2094529;28;20013;-66
2024/04/05 00:52:10;;;;;;;15.50;3.50;;;13.30;99.90;;;;;;2094187;28;20029;-66
2024/04/05 00:53:15;;;;;;;11.80;2.75;;;13.30;99.90;;;;;;2095832;28;20033;-67
2024/04/05 00:54:16;;;;;;;13.60;3.70;;;13.40;99.90;;;;;;2087523;28;20021;-66
2024/04/05 00:55:19;;;;;;;10.43;3.22;;;13.40;99.90;;;;;;2084679;28;20023;-67
2024/04/05 00:56:21;;;;;;;13.13;3.75;;;13.30;99.90;;;;;;2085878;28;20025;-66
2024/04/05 00:57:22;;;;;;;19.33;4.15;;;13.40;99.90;;;;;;2092473;28;20083;-67
2024/04/05 00:58:22;;;;;;;13.73;3.75;;;13.40;99.90;;;;;;2095143;28;20020;-66
2024/04/05 00:59:27;;;;;;;10.73;3.55;;;13.40;99.90;;;;;;2094801;28;20025;-69
2024/04/05 01:00:28;;;;;;;12.32;2.72;;;13.40;99.90;;;;;;2094666;28;20048;-68
2024/04/05 01:01:30;;;;;;;10.30;3.17;;;13.40;99.90;;;;;;2094776;28;20365;-67
2024/04/05 01:02:30;;;;;;;11.48;3.05;;;13.40;99.90;;;;;;2083688;28;20030;-67
2024/04/05 01:03:31;;;;;;;13.32;3.35;;;13.50;99.90;;;;;;2086497;28;20021;-67
2024/04/05 01:04:32;;;;;;;10.40;3.13;;;13.50;99.90;;;;;;2095256;28;20126;-67
2024/04/05 01:05:34;;;;;;;10.57;3.08;;;13.40;99.90;;;;;;2095036;28;20016;-67
2024/04/05 01:06:34;;;;;;;12.82;3.60;;;13.50;99.90;;;;;;2092068;28;20032;-67
2024/04/05 01:07:35;;;;;;;13.00;3.45;;;13.40;99.90;;;;;;2095576;28;20602;-67
2024/04/05 01:08:37;;;;;;;13.90;3.40;;;13.50;99.90;;;;;;2094655;28;20429;-66
2024/04/05 01:09:37;;;;;;;14.85;3.45;;;13.50;99.90;;;;;;2085835;28;20044;-67
2024/04/05 01:10:40;;;;;;;9.88;3.20;;;13.50;99.90;;;;;;2085904;28;20030;-66
2024/04/05 01:11:40;;;;;;;9.65;3.35;;;13.50;99.90;;;;;;2095062;28;20111;-66
2024/04/05 01:12:43;;;;;;;11.90;3.33;;;13.50;99.90;;;;;;2095005;28;20037;-66
2024/04/05 01:13:44;;;;;;;10.68;3.15;;;13.50;99.90;;;;;;2094138;28;20029;-66
2024/04/05 01:14:44;;;;;;;12.40;3.08;;;13.50;99.90;;;;;;2095744;28;20020;-67
2024/04/05 01:15:48;;;;;;;13.38;3.53;;;13.50;99.90;;;;;;2094419;28;20028;-67
2024/04/05 01:16:51;;;;;;;14.65;3.67;;;13.40;99.90;;;;;;2095100;28;20029;-67
2024/04/05 01:17:52;;;;;;;11.90;3.58;;;13.50;99.90;;;;;;2093302;28;20511;-66
2024/04/05 01:18:57;;;;;;;16.17;3.28;;;13.50;99.90;;;;;;2088178;28;20504;-66
2024/04/05 01:19:58;;;;;;;10.18;2.90;;;13.50;99.90;;;;;;2089637;28;20051;-66
2024/04/05 01:21:02;;;;;;;12.88;3.63;;;13.50;99.90;;;;;;2093743;28;20025;-66
2024/04/05 01:22:04;;;;;;;13.88;3.63;;;13.40;99.90;;;;;;2092932;28;20050;-67
2024/04/05 01:23:07;;;;;;;10.95;2.70;;;13.40;99.90;;;;;;2094646;28;20017;-66
2024/04/05 01:24:10;;;;;;;11.65;2.90;;;13.50;99.90;;;;;;2092754;28;20040;-66
2024/04/05 01:25:11;;;;;;;12.70;3.58;;;13.50;99.90;;;;;;2094824;28;20055;-67
2024/04/05 01:26:11;;;;;;;8.77;2.80;;;13.40;99.90;;;;;;2093825;28;20029;-67
2024/04/05 01:27:12;;;;;;;12.35;3.55;;;13.40;99.90;;;;;;2092115;28;20033;-68
2024/04/05 01:28:16;;;;;;;11.18;3.13;;;13.50;99.90;;;;;;2093121;28;20032;-68
2024/04/05 01:29:17;;;;;;;10.85;2.92;;;13.40;99.90;;;;;;2094411;28;20021;-65
2024/04/05 01:30:18;;;;;;;8.38;2.70;;;13.40;99.90;;;;;;2091942;28;20024;-66
2024/04/05 01:31:19;;;;;;;11.57;3.13;;;13.40;99.90;;;;;;2094196;28;20027;-66
2024/04/05 01:32:19;;;;;;;12.55;2.92;;;13.40;99.90;;;;;;2094699;28;20024;-67
2024/04/05 01:33:20;;;;;;;9.75;2.60;;;13.50;99.90;;;;;;2093403;28;20159;-67
2024/04/05 01:34:21;;;;;;;11.18;3.15;;;13.40;99.90;;;;;;2095436;28;20518;-67
2024/04/05 01:35:21;;;;;;;11.20;2.65;;;13.40;99.90;;;;;;2095126;28;20053;-66
2024/04/05 01:36:22;;;;;;;9.63;2.65;;;13.40;99.90;;;;;;2093888;28;20028;-66
2024/04/05 01:37:25;;;;;;;9.80;2.95;;;13.40;99.90;;;;;;2094221;28;20035;-67
2024/04/05 01:38:29;;;;;;;11.30;3.38;;;13.40;99.90;;;;;;2094865;28;20021;-68
2024/04/05 01:39:30;;;;;;;8.77;2.78;;;13.40;99.90;;;;;;2094601;28;20014;-69
2024/04/05 01:40:30;;;;;;;11.68;2.65;;;13.40;99.90;;;;;;2083484;28;20104;-68
2024/04/05 01:41:36;;;;;;;10.27;2.60;;;13.40;99.90;;;;;;2084732;28;20031;-66
2024/04/05 01:42:37;;;;;;;12.20;3.05;;;13.40;99.90;;;;;;2094807;28;20139;-69
2024/04/05 01:43:38;;;;;;;9.40;2.60;;;13.40;99.90;;;;;;2095092;28;20113;-67
2024/04/05 01:44:39;;;;;;;10.60;3.63;;;13.40;99.90;;;;;;2094591;28;20050;-66
2024/04/05 01:45:40;;;;;;;9.23;2.50;;;13.40;99.90;;;;;;2094603;28;20028;-68
2024/04/05 01:46:40;;;;;;;8.55;2.88;;;13.30;99.90;;;;;;2094640;28;20115;-66
2024/04/05 01:47:42;;;;;;;8.15;3.10;;;13.40;99.90;;;;;;2094574;28;20021;-65
2024/04/05 01:48:43;;;;;;;10.77;2.60;;;13.40;99.90;;;;;;2093997;28;20520;-65
2024/04/05 01:49:43;;;;;;;9.70;2.70;;;13.40;99.90;;;;;;2094542;28;20365;-66
2024/04/05 01:50:44;;;;;;;10.55;2.90;;;13.40;99.90;;;;;;2093040;28;20070;-66
2024/04/05 01:51:44;;;;;;;8.65;2.50;;;13.40;99.90;;;;;;2094009;28;20102;-66
2024/04/05 01:52:47;;;;;;;9.55;2.97;;;13.40;99.90;;;;;;2093892;28;20024;-65
2024/04/05 01:53:48;;;;;;;10.10;2.85;;;13.40;99.90;;;;;;2093351;28;20089;-66
2024/04/05 01:54:49;;;;;;;7.22;2.80;;;13.40;99.90;;;;;;2094131;28;20151;-66
2024/04/05 01:55:49;;;;;;;12.30;3.05;;;13.40;99.90;;;;;;2092197;28;20043;-66
2024/04/05 01:56:50;;;;;;;11.82;3.10;;;13.40;99.90;;;;;;2092712;28;20052;-66
2024/04/05 01:57:50;;;;;;;12.80;2.83;;;13.40;99.90;;;;;;2093377;28;20031;-66
2024/04/05 01:58:51;;;;;;;7.70;2.55;;;13.30;99.90;;;;;;2094651;28;20032;-65
2024/04/05 01:59:54;;;;;;;7.57;2.65;;;13.40;99.90;;;;;;2094315;28;20051;-65
2024/04/05 02:01:01;;;;;;;12.90;2.83;;;13.40;99.90;;;;;;2092906;28;20094;-66
2024/04/05 02:02:02;;;;;;;9.43;2.65;;;13.30;99.90;;;;;;2094349;28;20049;-67
2024/04/05 02:03:03;;;;;;;9.05;2.97;;;13.30;99.90;;;;;;2094676;28;20044;-66
2024/04/05 02:04:03;;;;;;;15.02;2.92;;;13.40;99.90;;;;;;2095272;28;20118;-66
2024/04/05 02:05:05;;;;;;;10.60;2.97;;;13.40;99.90;;;;;;2091814;28;20401;-66
2024/04/05 02:06:14;;;;;;;6.95;2.80;;;13.40;99.90;;;;;;2094511;28;20021;-66
2024/04/05 02:07:15;;;;;;;11.75;2.92;;;13.40;99.90;;;;;;2092259;28;20441;-65
2024/04/05 02:08:15;;;;;;;6.55;2.40;;;13.30;99.90;;;;;;2095127;28;20400;-66
2024/04/05 02:09:16;;;;;;;10.50;2.88;;;13.40;99.90;;;;;;2093443;28;20056;-66
2024/04/05 02:10:16;;;;;;;11.55;2.88;;;13.30;99.90;;;;;;2093896;28;20055;-65
2024/04/05 02:11:17;;;;;;;9.15;2.75;;;13.30;99.90;;;;;;2094948;28;20116;-66
2024/04/05 02:12:19;;;;;;;15.82;3.58;;;13.40;99.90;;;;;;2095259;28;20024;-66
2024/04/05 02:13:19;;;;;;;12.52;2.53;;;13.40;99.90;;;;;;2094388;28;20020;-65
2024/04/05 02:14:20;;;;;;;8.82;2.50;;;13.40;99.90;;;;;;2092757;28;20032;-67
2024/04/05 02:15:20;;;;;;;15.80;3.67;;;13.40;99.90;;;;;;2093541;28;20048;-66
2024/04/05 02:16:21;;;;;;;8.88;3.00;;;13.40;99.90;;;;;;2095102;28;20056;-66
2024/04/05 02:17:21;;;;;;;11.82;2.70;;;13.40;99.90;;;;;;2094371;28;20025;-66
2024/04/05 02:18:22;;;;;;;11.07;3.33;;;13.40;99.90;;;;;;2092359;28;20392;-65
2024/04/05 02:19:23;;;;;;;12.05;2.88;;;13.40;99.90;;;;;;2093065;28;20052;-69
2024/04/05 02:20:23;;;;;;;13.52;3.65;;;13.40;99.90;;;;;;2091272;28;20055;-68
2024/04/05 02:21:24;;;;;;;11.35;3.42;;;13.40;99.90;;;;;;2093297;28;20090;-68
2024/04/05 02:22:25;;;;;;;10.88;3.22;;;13.40;99.90;;;;;;2095346;28;20431;-68
2024/04/05 02:23:25;;;;;;;10.27;2.67;;;13.40;99.90;;;;;;2096039;28;20020;-68
2024/04/05 02:24:26;;;;;;;9.60;2.50;;;13.40;99.90;;;;;;2086079;28;20025;-68
2024/04/05 02:25:26;;;;;;;10.10;2.50;;;13.50;99.90;;;;;;2085201;28;20025;-68
2024/04/05 02:26:27;;;;;;;8.25;2.70;;;13.40;99.90;;;;;;2094005;28;20025;-69
2024/04/05 02:27:27;;;;;;;11.23;3.58;;;13.40;99.90;;;;;;2092881;28;20024;-68
2024/04/05 02:28:28;;;;;;;14.82;2.80;;;13.40;99.90;;;;;;2094327;28;20074;-68
2024/04/05 02:29:29;;;;;;;11.93;3.10;;;13.40;99.90;;;;;;2092980;28;20033;-68
2024/04/05 02:30:29;;;;;;;8.70;2.85;;;13.50;99.90;;;;;;2093245;28;20463;-68
2024/04/05 02:31:30;;;;;;;12.60;2.92;;;13.50;99.90;;;;;;2094175;28;20107;-68
2024/04/05 02:32:30;;;;;;;13.23;3.72;;;13.50;99.90;;;;;;2093482;28;20115;-69
2024/04/05 02:33:31;;;;;;;12.35;3.40;;;13.50;99.90;;;;;;2093237;28;20021;-69
2024/04/05 02:34:31;;;;;;;11.68;2.78;;;13.50;99.90;;;;;;2094843;28;20044;-69
2024/04/05 02:35:32;;;;;;;11.05;3.40;;;13.50;99.90;;;;;;2092970;28;20029;-69
2024/04/05 02:36:33;;;;;;;11.02;3.30;;;13.50;99.90;;;;;;2095053;28;20024;-69
2024/04/05 02:37:33;;;;;;;11.50;3.65;;;13.50;99.90;;;;;;2093166;28;20032;-69
2024/04/05 02:38:35;;;;;;;15.55;3.50;;;13.50;99.90;;;;;;2093495;28;20020;-69
2024/04/05 02:39:35;;;;;;;11.80;3.00;;;13.50;99.90;;;;;;2084545;28;20060;-69
2024/04/05 02:40:36;;;;;;;12.55;3.40;;;13.50;99.90;;;;;;2085089;28;20028;-69
2024/04/05 02:41:37;;;;;;;8.63;3.03;;;13.50;99.90;;;;;;2094619;28;20037;-69
2024/04/05 02:42:37;;;;;;;9.75;2.38;;;13.50;99.90;;;;;;2093234;28;20060;-69
2024/04/05 02:43:38;;;;;;;9.65;2.88;;;13.60;99.90;;;;;;2096643;28;20027;-69
2024/04/05 02:44:38;;;;;;;9.90;3.33;;;13.60;99.90;;;;;;2094504;28;20012;-69
2024/04/05 02:45:39;;;;;;;10.43;3.28;;;13.60;99.90;;;;;;2092653;28;20424;-68
2024/04/05 02:46:40;;;;;;;12.43;3.30;;;13.60;99.90;;;;;;2092978;28;20090;-68
2024/04/05 02:47:40;;;;;;;15.27;3.10;;;13.60;99.90;;;;;;2092912;28;20021;-68
2024/04/05 02:48:41;;;;;;;11.55;2.80;;;13.60;99.90;;;;;;2094107;28;20028;-68
2024/04/05 02:49:41;;;;;;;10.45;2.95;;;13.60;99.90;;;;;;2092884;28;20104;-68
2024/04/05 02:50:42;;;;;;;10.95;2.92;;;13.60;99.90;;;;;;2093294;28;20025;-68
2024/04/05 02:51:43;;;;;;;9.57;2.75;;;13.60;99.90;;;;;;2092263;28;20024;-69
2024/04/05 02:52:44;;;;;;;13.52;3.00;;;13.60;99.90;;;;;;2093230;28;20028;-69
2024/04/05 02:53:45;;;;;;;11.75;3.08;;;13.60;99.90;;;;;;2095229;28;20028;-69
2024/04/05 02:54:46;;;;;;;9.10;2.78;;;13.60;99.90;;;;;;2093226;28;20032;-69
2024/04/05 02:55:46;;;;;;;9.90;2.90;;;13.60;99.90;;;;;;2093514;28;20021;-69
2024/04/05 02:56:47;;;;;;;12.25;3.22;;;13.60;99.90;;;;;;2092112;28;20761;-69
2024/04/05 02:57:48;;;;;;;13.30;3.30;;;13.70;99.90;;;;;;2092072;28;20048;-69
2024/04/05 02:58:48;;;;;;;12.23;3.22;;;13.60;99.90;;;;;;2091961;28;20028;-69
2024/04/05 02:59:49;;;;;;;13.15;2.97;;;13.60;99.90;;;;;;2093371;28;20032;-69
2024/04/05 03:00:57;;;;;;;9.52;2.88;;;13.70;99.90;;;;;;2093635;28;20039;-69
2024/04/05 03:01:57;;;;;;;12.38;3.95;;;13.60;99.90;;;;;;2093088;28;20040;-69
2024/04/05 03:02:58;;;;;;;11.27;3.33;;;13.60;99.90;;;;;;2093628;28;20469;-69
2024/04/05 03:03:58;;;;;;;10.52;2.97;;;13.70;99.90;;;;;;2093519;28;20736;-69
2024/04/05 03:04:59;;;;;;;10.38;3.10;;;13.70;99.90;;;;;;2094003;28;20025;-68
2024/04/05 03:05:59;;;;;;;16.05;3.35;;;13.60;99.90;;;;;;2094292;28;20429;-70
2024/04/05 03:07:00;;;;;;;11.02;3.10;;;13.60;99.90;;;;;;2093671;28;20032;-69
2024/04/05 03:08:01;;;;;;;9.85;3.20;;;13.70;99.90;;;;;;2093888;28;20056;-69
2024/04/05 03:09:01;;;;;;;10.30;3.28;;;13.60;99.90;;;;;;2092083;28;20021;-69
2024/04/05 03:10:02;;;;;;;9.40;2.70;;;13.70;99.90;;;;;;2084993;28;20053;-69
2024/04/05 03:11:03;;;;;;;10.65;2.80;;;13.70;99.90;;;;;;2086582;28;20028;-69
2024/04/05 03:12:03;;;;;;;14.13;3.33;;;13.70;99.90;;;;;;2094876;28;20366;-69
2024/04/05 03:13:04;;;;;;;10.85;2.75;;;13.70;99.90;;;;;;2094478;28;20073;-69
2024/04/05 03:14:05;;;;;;;9.10;2.88;;;13.70;99.90;;;;;;2094752;28;20161;-69
2024/04/05 03:15:07;;;;;;;14.80;4.05;;;13.70;99.90;;;;;;2093379;28;20024;-69
2024/04/05 03:16:07;;;;;;;8.93;3.10;;;13.70;99.90;;;;;;2095243;28;20102;-69
2024/04/05 03:17:08;;;;;;;11.27;3.33;;;13.70;99.90;;;;;;2092950;28;20083;-69
2024/04/05 03:18:10;;;;;;;11.35;3.85;;;13.70;99.90;;;;;;2094589;28;20124;-69
2024/04/05 03:19:10;;;;;;;12.52;2.85;;;13.70;99.90;;;;;;2094539;28;20033;-69
2024/04/05 03:20:12;;;;;;;12.43;3.28;;;13.70;99.90;;;;;;2093589;28;20053;-69
2024/04/05 03:21:13;;;;;;;13.82;3.13;;;13.70;99.90;;;;;;2093161;28;20037;-69
2024/04/05 03:22:13;;;;;;;12.25;3.22;;;13.80;99.90;;;;;;2092564;28;20032;-69
2024/04/05 03:23:14;;;;;;;10.43;3.03;;;13.80;99.90;;;;;;2093502;28;20550;-69
2024/04/05 03:24:14;;;;;;;12.13;2.78;;;13.80;99.90;;;;;;2094192;28;20084;-69
2024/04/05 03:25:15;;;;;;;11.75;3.10;;;13.80;99.90;;;;;;2096694;28;20369;-69
2024/04/05 03:26:15;;;;;;;12.30;2.90;;;13.80;99.90;;;;;;2090399;28;20362;-69
2024/04/05 03:27:16;;;;;;;10.05;2.67;;;13.80;99.90;;;;;;2095900;28;20123;-69
2024/04/05 03:28:17;;;;;;;13.10;4.05;;;13.80;99.90;;;;;;2093842;28;20607;-69
2024/04/05 03:29:17;;;;;;;10.73;2.63;;;13.80;99.90;;;;;;2093296;28;20024;-69
2024/04/05 03:30:18;;;;;;;10.05;3.17;;;13.80;99.90;;;;;;2093701;28;20463;-69
2024/04/05 03:31:18;;;;;;;18.35;3.47;;;13.80;99.90;;;;;;2092771;28;20049;-69
2024/04/05 03:32:19;;;;;;;11.55;2.50;;;13.90;99.90;;;;;;2094034;28;20107;-69
2024/04/05 03:33:19;;;;;;;10.70;2.85;;;13.90;99.90;;;;;;2093108;28;20032;-68
2024/04/05 03:34:20;;;;;;;10.90;3.15;;;13.90;99.90;;;;;;2093955;28;20094;-69
2024/04/05 03:35:20;;;;;;;12.65;3.38;;;13.90;99.90;;;;;;2091937;28;20489;-69
2024/04/05 03:36:21;;;;;;;12.88;3.05;;;13.90;99.90;;;;;;2093531;28;20024;-69
2024/04/05 03:37:22;;;;;;;12.63;3.25;;;13.90;99.90;;;;;;2092469;28;20111;-69
2024/04/05 03:38:22;;;;;;;10.95;2.72;;;13.90;99.90;;;;;;2091910;28;20028;-69
2024/04/05 03:39:23;;;;;;;9.82;2.90;;;13.90;99.90;;;;;;2093820;28;20025;-69
2024/04/05 03:40:23;;;;;;;10.23;2.90;;;13.90;99.90;;;;;;2093269;28;20063;-69
2024/04/05 03:41:24;;;;;;;12.77;3.35;;;14.00;99.90;;;;;;2087507;28;20033;-69
2024/04/05 03:42:24;;;;;;;10.85;2.90;;;14.00;99.90;;;;;;2086560;28;20025;-69
2024/04/05 03:43:25;;;;;;;11.05;2.80;;;14.00;99.90;;;;;;2092758;28;20016;-69
2024/04/05 03:44:26;;;;;;;14.18;3.63;;;14.00;99.90;;;;;;2094558;28;20028;-69
2024/04/05 03:45:26;;;;;;;14.88;4.10;;;14.00;99.90;;;;;;2092952;28;20099;-69
2024/04/05 03:46:32;;;;;;;11.50;2.78;;;14.00;99.90;;;;;;2092731;28;20114;-69
2024/04/05 03:47:33;;;;;;;8.02;2.40;;;14.00;99.90;;;;;;2094189;28;20021;-69
2024/04/05 03:48:33;;;;;;;10.07;3.40;;;14.00;99.90;;;;;;2093455;28;20044;-69
2024/04/05 03:49:34;;;;;;;10.20;2.80;;;14.00;99.90;;;;;;2092679;28;20057;-69
2024/04/05 03:50:34;;;;;;;10.80;3.22;;;14.00;99.90;;;;;;2090422;28;20017;-69
2024/04/05 03:51:35;;;;;;;12.02;3.55;;;14.00;99.90;;;;;;2092740;28;20033;-69
2024/04/05 03:52:36;;;;;;;13.27;3.10;;;14.00;99.90;;;;;;2092371;28;20025;-69
2024/04/05 03:53:36;;;;;;;9.55;3.35;;;14.00;99.90;;;;;;2094199;28;20497;-69
2024/04/05 03:54:37;;;;;;;12.57;3.60;;;14.00;99.90;;;;;;2093495;28;20451;-69
2024/04/05 03:55:37;;;;;;;12.75;3.40;;;14.00;99.90;;;;;;2092948;28;20025;-69
2024/04/05 03:56:38;;;;;;;12.13;2.60;;;14.00;99.90;;;;;;2093751;28;20562;-69
2024/04/05 03:57:42;;;;;;;11.48;2.97;;;14.00;99.90;;;;;;2092817;28;20082;-69
2024/04/05 03:58:42;;;;;;;11.43;3.00;;;14.00;99.90;;;;;;2093195;28;20394;-69
2024/04/05 03:59:45;;;;;;;12.15;2.75;;;14.10;99.90;;;;;;2093135;28;20032;-69
2024/04/05 04:00:52;;;;;;;11.85;2.85;;;14.10;99.90;;;;;;2094810;28;20532;-69
2024/04/05 04:01:53;;;;;;;14.93;3.97;;;14.10;99.90;;;;;;2094073;28;20033;-69
2024/04/05 04:02:55;;;;;;;11.82;2.90;;;14.10;99.90;;;;;;2096244;28;20113;-69
2024/04/05 04:03:56;;;;;;;10.10;2.75;;;14.00;99.90;;;;;;2096332;28;20078;-69
2024/04/05 04:04:57;;;;;;;10.60;3.45;;;14.10;99.90;;;;;;2090139;28;20038;-69
2024/04/05 04:05:57;;;;;;;13.13;3.28;;;14.10;99.90;;;;;;2097758;28;20516;-69
2024/04/05 04:06:58;;;;;;;15.77;3.30;;;14.10;99.90;;;;;;2094784;28;20021;-69
2024/04/05 04:08:00;;;;;;;10.60;3.10;;;14.10;99.90;;;;;;2093770;28;20029;-69
2024/04/05 04:09:00;;;;;;;9.13;2.80;;;14.10;99.90;;;;;;2095223;28;20104;-69
2024/04/05 04:10:01;;;;;;;14.10;2.83;;;14.10;99.90;;;;;;2094170;28;20032;-69
2024/04/05 04:11:01;;;;;;;11.13;3.53;;;14.10;99.90;;;;;;2092881;28;20024;-69
2024/04/05 04:12:03;;;;;;;11.68;3.67;;;14.10;99.90;;;;;;2093369;28;20029;-69
2024/04/05 04:13:04;;;;;;;9.90;3.03;;;14.10;99.90;;;;;;2091996;28;20036;-69
2024/04/05 04:14:04;;;;;;;18.38;3.22;;;14.10;99.90;;;;;;2096386;28;20020;-69
2024/04/05 04:15:10;;;;;;;10.52;2.80;;;14.10;99.90;;;;;;2094208;28;20028;-69
2024/04/05 04:16:10;;;;;;;11.88;3.05;;;14.10;99.90;;;;;;2095976;28;20520;-69
2024/04/05 04:17:11;;;;;;;11.20;3.70;;;14.10;99.90;;;;;;2095161;28;20469;-69
2024/04/05 04:18:12;;;;;;;9.27;2.58;;;14.10;99.90;;;;;;2095913;28;20079;-69
2024/04/05 04:19:12;;;;;;;11.68;2.83;;;14.10;99.90;;;;;;2094507;28;20509;-69
2024/04/05 04:20:13;;;;;;;11.73;2.55;;;14.10;99.90;;;;;;2095649;28;20033;-69
2024/04/05 04:21:14;;;;;;;9.68;2.45;;;14.10;99.90;;;;;;2093568;28;20064;-69
2024/04/05 04:22:16;;;;;;;9.48;2.53;;;14.10;99.90;;;;;;2088811;28;20029;-69
2024/04/05 04:23:17;;;;;;;7.75;2.47;;;14.10;99.90;;;;;;2086401;28;20060;-69
2024/04/05 04:24:19;;;;;;;9.35;2.75;;;14.10;99.90;;;;;;2094981;28;20032;-69
2024/04/05 04:25:21;;;;;;;11.75;2.70;;;14.20;99.90;;;;;;2094164;28;20017;-69
2024/04/05 04:26:21;;;;;;;11.95;2.47;;;14.20;99.90;;;;;;2093914;28;20099;-69
2024/04/05 04:27:22;;;;;;;10.15;2.97;;;14.10;99.90;;;;;;2094665;28;20032;-69
2024/04/05 04:28:22;;;;;;;9.65;2.60;;;14.20;99.90;;;;;;2093701;28;20507;-69
2024/04/05 04:29:23;;;;;;;11.48;3.20;;;14.20;99.90;;;;;;2093686;28;20035;-69
2024/04/05 04:30:25;;;;;;;12.15;2.85;;;14.20;99.90;;;;;;2095573;28;20020;-69
2024/04/05 04:31:26;;;;;;;10.45;3.00;;;14.20;99.90;;;;;;2094109;28;20028;-68
2024/04/05 04:32:27;;;;;;;10.30;2.55;;;14.20;99.90;;;;;;2095871;28;20096;-69
2024/04/05 04:33:27;;;;;;;11.00;2.72;;;14.20;99.90;;;;;;2096066;28;20548;-68
2024/04/05 04:34:28;;;;;;;12.75;3.28;;;14.20;99.90;;;;;;2093942;28;20025;-69
2024/04/05 04:35:29;;;;;;;10.35;3.00;;;14.20;99.90;;;;;;2096124;28;20439;-68
2024/04/05 04:36:29;;;;;;;13.85;3.10;;;14.20;99.90;;;;;;2095790;28;20103;-68
2024/04/05 04:37:30;;;;;;;11.15;2.78;;;14.20;99.90;;;;;;2093612;28;20039;-69
2024/04/05 04:38:32;;;;;;;13.80;3.15;;;14.20;99.90;;;;;;2094792;28;20027;-69
2024/04/05 04:39:33;;;;;;;7.68;2.78;;;14.20;99.90;;;;;;2094740;28;20027;-69
2024/04/05 04:40:34;;;;;;;10.50;2.75;;;14.20;99.90;;;;;;2094705;28;20043;-69
2024/04/05 04:41:35;;;;;;;10.60;2.60;;;14.20;99.90;;;;;;2095240;28;20033;-69
2024/04/05 04:42:36;;;;;;;9.10;2.78;;;14.20;99.90;;;;;;2092309;28;20029;-69
2024/04/05 04:43:39;;;;;;;10.93;2.70;;;14.20;99.90;;;;;;2093296;28;20024;-69
2024/04/05 04:44:39;;;;;;;10.95;2.85;;;14.20;99.90;;;;;;2093735;28;20025;-69
2024/04/05 04:45:40;;;;;;;13.40;3.55;;;14.20;99.90;;;;;;2095273;28;20027;-69
2024/04/05 04:46:40;;;;;;;13.68;4.00;;;14.30;99.90;;;;;;2094831;28;20062;-69
2024/04/05 04:47:41;;;;;;;14.02;2.95;;;14.30;99.90;;;;;;2093383;28;20021;-69
2024/04/05 04:48:42;;;;;;;10.77;2.80;;;14.30;99.90;;;;;;2093097;28;20028;-69
2024/04/05 04:49:42;;;;;;;14.68;3.58;;;14.30;99.90;;;;;;2095368;28;20039;-70
2024/04/05 04:50:44;;;;;;;9.50;2.63;;;14.30;99.90;;;;;;2092790;28;20047;-69
2024/04/05 04:51:44;;;;;;;9.75;2.95;;;14.30;99.90;;;;;;2091804;28;20123;-69
2024/04/05 04:52:45;;;;;;;12.65;3.60;;;14.30;99.90;;;;;;2088144;28;20036;-70
2024/04/05 04:53:45;;;;;;;11.32;2.85;;;14.30;99.90;;;;;;2087207;28;20044;-69
2024/04/05 04:54:46;;;;;;;11.02;2.67;;;14.30;99.90;;;;;;2095702;28;20436;-69
2024/04/05 04:55:47;;;;;;;9.50;2.85;;;14.30;99.90;;;;;;2093942;28;20124;-69
2024/04/05 04:56:47;;;;;;;11.98;2.58;;;14.30;99.90;;;;;;2091611;28;20055;-70
2024/04/05 04:57:48;;;;;;;13.00;3.28;;;14.30;99.90;;;;;;2095112;28;20029;-70
2024/04/05 04:58:49;;;;;;;12.73;2.97;;;14.30;99.90;;;;;;2093647;28;20030;-70
2024/04/05 04:59:51;;;;;;;11.48;2.97;;;14.30;99.90;;;;;;2092739;28;20504;-70
2024/04/05 05:00:51;;;;;;;14.98;2.85;;;14.30;99.90;;;;;;2094799;28;20059;-70
2024/04/05 05:01:52;;;;;;;11.95;2.78;;;14.30;99.90;;;;;;2093510;28;20046;-70
2024/04/05 05:02:53;;;;;;;8.30;2.38;;;14.30;99.90;;;;;;2094443;28;20518;-70
2024/04/05 05:03:54;;;;;;;9.23;2.92;;;14.40;99.90;;;;;;2093709;28;20535;-70
2024/04/05 05:04:54;;;;;;;11.63;3.35;;;14.40;99.90;;;;;;2093854;28;20468;-70
2024/04/05 05:05:55;;;;;;;7.85;2.75;;;14.30;99.90;;;;;;2094736;28;20032;-70
2024/04/05 05:06:56;;;;;;;7.38;2.95;;;14.30;99.90;;;;;;2093576;28;20086;-70
2024/04/05 05:07:56;;;;;;;11.40;3.25;;;14.40;99.90;;;;;;2094486;28;20032;-70
2024/04/05 05:08:57;;;;;;;12.38;3.13;;;14.40;99.90;;;;;;2095315;28;20037;-70
2024/04/05 05:09:58;;;;;;;9.35;2.60;;;14.40;99.90;;;;;;2092481;28;20021;-70
2024/04/05 05:10:58;;;;;;;11.15;2.50;;;14.40;99.90;;;;;;2093537;28;20138;-70
2024/04/05 05:11:59;;;;;;;11.98;3.03;;;14.40;99.90;;;;;;2093090;28;20020;-70
2024/04/05 05:12:59;;;;;;;13.95;3.38;;;14.40;99.90;;;;;;2093533;28;20033;-70
2024/04/05 05:14:00;;;;;;;10.85;2.65;;;14.40;99.90;;;;;;2094329;28;20032;-70
2024/04/05 05:15:01;;;;;;;15.25;3.38;;;14.40;99.90;;;;;;2095569;28;20025;-70